Terminal Aerodrome Forecast
Issued by NWS

Home | Current Version | Previous Version | Text Only | Print | Product List | Glossary On
Versions: 1 2 3 4 5 6 7 8 9 10 11 12 13 14 15 16 17 18 19 20 21 22 23 24 25 26 27 28 29 30 31 32
000
FTAK31 PANC 250059 AAA
TAFADQ
TAF AMD
PADQ 250059Z 2501/2524 05006KT P6SM -SHRA SCT025 OVC035
      TEMPO 2501/2504 BKN025
     FM250400 08008KT 5SM -RA BR BKN015 OVC025=

USA.gov is the U.S. government's official web portal to all federal, state and local government web resources and services.